ALY weather

El Nouzha Airport
Alexandria, Alexandria Governorate, Egypt

Public forecast

Using degrees Celsius for public forecast. Weather courtesy of forecast.io.

METAR (pilot weather report)

Retrieved 2019/03/23 16:00 UTC (44 minutes ago):

HEAX 231600Z 03012KT 9999 SCT020 19/11 Q1008 NOSIG

TAF (pilot weather forecast)

Retrieved 2019/03/23 12:24 UTC (4 hours ago):

TAF HEAX 231100Z 2312/2418 03012KT 9999 SCT020 TEMPO 2312/2318 7000 RA BKN020 BECMG 2406/2408 30010G20KT